Time;durP1;ratioP1;P1;durP2;ratioP2;P2;SDS_P1;SDS_P2;PMS_P1;PMS_P2;Temp;Humidity;BMP_temperature;BMP_pressure;BME280_temperature;BME280_humidity;BME280_pressure;Samples;Min_cycle;Max_cycle;Signal;HPM_P1;HPM_P2
2022/11/27 00:01:21;;;;;;;;;;;4.90;99.90;;;;;;5052602;28;19995;-62
2022/11/27 00:03:47;;;;;;;;;;;5.00;99.90;;;;;;5072577;28;19920;-63
2022/11/27 00:06:14;;;;;;;;;;;5.00;99.90;;;;;;5048696;28;19919;-64
2022/11/27 00:08:40;;;;;;;;;;;5.00;99.90;;;;;;5042627;28;19916;-63
2022/11/27 00:11:07;;;;;;;;;;;5.00;99.90;;;;;;5069439;28;20354;-63
2022/11/27 00:13:32;;;;;;;;;;;5.00;99.90;;;;;;5069878;28;19920;-63
2022/11/27 00:15:58;;;;;;;;;;;5.00;99.90;;;;;;5069816;28;19924;-62
2022/11/27 00:18:23;;;;;;;;;;;5.10;99.90;;;;;;5067524;28;19995;-61
2022/11/27 00:20:49;;;;;;;;;;;5.10;99.90;;;;;;5074865;28;19916;-63
2022/11/27 00:23:14;;;;;;;;;;;5.10;99.90;;;;;;5071357;28;19913;-60
2022/11/27 00:25:40;;;;;;;;;;;5.10;99.90;;;;;;5047331;28;19923;-63
2022/11/27 00:28:05;;;;;;;;;;;5.10;99.90;;;;;;5071432;28;19912;-64
2022/11/27 00:30:31;;;;;;;;;;;5.10;99.90;;;;;;5068564;28;20301;-63
2022/11/27 00:32:56;;;;;;;;;;;5.20;99.90;;;;;;5070694;28;19912;-64
2022/11/27 00:35:21;;;;;;;;;;;5.10;99.90;;;;;;5044935;28;19920;-63
2022/11/27 00:37:47;;;;;;;;;;;5.10;99.90;;;;;;5072579;28;20268;-63
2022/11/27 00:40:12;;;;;;;;;;;5.10;99.90;;;;;;5071891;28;19921;-63
2022/11/27 00:42:38;;;;;;;;;;;5.20;99.90;;;;;;5075497;28;19917;-63
2022/11/27 00:45:03;;;;;;;;;;;5.10;99.90;;;;;;5070136;28;19912;-64
2022/11/27 00:47:29;;;;;;;;;;;5.20;99.90;;;;;;5071403;28;20003;-62
2022/11/27 00:49:54;;;;;;;;;;;5.20;99.90;;;;;;5050528;28;19912;-62
2022/11/27 00:52:20;;;;;;;;;;;5.20;99.90;;;;;;5053583;28;19913;-62
2022/11/27 00:54:45;;;;;;;;;;;5.30;99.90;;;;;;5071079;28;20396;-63
2022/11/27 00:57:11;;;;;;;;;;;5.30;99.90;;;;;;5070989;28;19935;-63
2022/11/27 00:59:36;;;;;;;;;;;5.30;99.90;;;;;;5073113;28;19917;-63
2022/11/27 01:02:02;;;;;;;;;;;5.30;99.90;;;;;;5077301;28;19939;-63
2022/11/27 01:04:27;;;;;;;;;;;5.20;99.90;;;;;;5071605;28;20294;-63
2022/11/27 01:06:53;;;;;;;;;;;5.20;99.90;;;;;;5073622;28;19924;-61
2022/11/27 01:09:18;;;;;;;;;;;5.20;99.90;;;;;;5070762;28;19919;-62
2022/11/27 01:11:43;;;;;;;;;;;5.20;99.90;;;;;;5070714;28;19920;-63
2022/11/27 01:14:11;;;;;;;;;;;5.20;99.90;;;;;;5070212;28;19912;-63
2022/11/27 01:16:36;;;;;;;;;;;5.20;99.90;;;;;;5076710;28;20370;-61
2022/11/27 01:19:02;;;;;;;;;;;5.20;99.90;;;;;;5073340;28;19923;-61
2022/11/27 01:21:29;;;;;;;;;;;5.20;99.90;;;;;;5072416;28;19917;-62
2022/11/27 01:23:54;;;;;;;;;;;5.30;99.90;;;;;;5071755;28;19913;-63
2022/11/27 01:26:20;;;;;;;;;;;5.30;99.90;;;;;;5067900;28;19913;-63
2022/11/27 01:28:46;;;;;;;;;;;5.30;99.90;;;;;;5071091;28;19919;-63
2022/11/27 01:31:17;;;;;;;;;;;5.30;99.90;;;;;;5076209;28;19982;-63
2022/11/27 01:33:43;;;;;;;;;;;5.30;99.90;;;;;;5071831;28;19919;-63
2022/11/27 01:36:09;;;;;;;;;;;5.30;99.90;;;;;;5069828;28;19917;-64
2022/11/27 01:38:34;;;;;;;;;;;5.30;99.90;;;;;;5055592;28;19913;-61
2022/11/27 01:41:05;;;;;;;;;;;5.30;99.90;;;;;;5078676;28;19951;-63
2022/11/27 01:43:37;;;;;;;;;;;5.30;99.90;;;;;;5072125;28;19912;-62
2022/11/27 01:46:03;;;;;;;;;;;5.30;99.90;;;;;;5052719;28;19916;-63
2022/11/27 01:48:29;;;;;;;;;;;5.30;99.90;;;;;;5071044;28;19923;-63
2022/11/27 01:50:54;;;;;;;;;;;5.30;99.90;;;;;;5079789;28;19919;-63
2022/11/27 01:53:19;;;;;;;;;;;5.30;99.90;;;;;;5074694;28;20008;-63
2022/11/27 01:55:47;;;;;;;;;;;5.30;99.90;;;;;;5073441;28;20297;-63
2022/11/27 01:58:16;;;;;;;;;;;5.30;99.90;;;;;;5066496;28;19917;-63
2022/11/27 02:00:42;;;;;;;;;;;5.30;99.90;;;;;;5055976;28;20354;-63
2022/11/27 02:03:07;;;;;;;;;;;5.20;99.90;;;;;;5069383;28;19958;-62
2022/11/27 02:05:33;;;;;;;;;;;5.30;99.90;;;;;;5070411;28;19916;-62
2022/11/27 02:08:01;;;;;;;;;;;5.20;99.90;;;;;;5055002;28;20015;-61
2022/11/27 02:10:47;;;;;;;;;;;5.20;99.90;;;;;;5070729;28;19916;-63
2022/11/27 02:13:14;;;;;;;;;;;5.20;99.90;;;;;;5062828;28;19916;-63
2022/11/27 02:15:39;;;;;;;;;;;5.20;99.90;;;;;;5051814;28;19912;-62
2022/11/27 02:18:11;;;;;;;;;;;5.20;99.90;;;;;;5067240;22;20316;-59
2022/11/27 02:20:40;;;;;;;;;;;5.10;99.90;;;;;;5063401;28;20360;-60
2022/11/27 02:23:24;;;;;;;;;;;5.10;99.90;;;;;;5067111;28;19912;-58
2022/11/27 02:25:49;;;;;;;;;;;5.10;99.90;;;;;;5063681;28;20013;-57
2022/11/27 02:28:24;;;;;;;;;;;5.10;99.90;;;;;;5066493;28;19920;-62
2022/11/27 02:30:52;;;;;;;;;;;5.10;99.90;;;;;;5062700;28;19928;-58
2022/11/27 02:33:19;;;;;;;;;;;5.10;99.90;;;;;;5067473;28;19998;-58
2022/11/27 02:35:57;;;;;;;;;;;5.10;99.90;;;;;;5061629;28;19934;-58
2022/11/27 02:38:37;;;;;;;;;;;5.10;99.90;;;;;;5070187;28;19912;-58
2022/11/27 02:41:16;;;;;;;;;;;5.10;99.90;;;;;;5066367;28;19960;-58
2022/11/27 02:43:44;;;;;;;;;;;5.10;99.90;;;;;;5069607;28;19916;-60
2022/11/27 02:46:10;;;;;;;;;;;5.10;99.90;;;;;;5060107;28;20061;-60
2022/11/27 02:49:02;;;;;;;;;;;5.10;99.90;;;;;;5063119;28;20297;-61
2022/11/27 02:51:32;;;;;;;;;;;5.10;99.90;;;;;;5065047;28;19920;-60
2022/11/27 02:53:59;;;;;;;;;;;5.10;99.90;;;;;;5064148;28;19919;-59
2022/11/27 02:56:26;;;;;;;;;;;5.10;99.90;;;;;;5068958;28;19913;-59
2022/11/27 02:58:54;;;;;;;;;;;5.10;99.90;;;;;;5065041;28;20423;-57
2022/11/27 03:01:20;;;;;;;;;;;5.10;99.90;;;;;;5061454;28;20294;-60
2022/11/27 03:03:47;;;;;;;;;;;5.10;99.90;;;;;;5060127;28;19927;-59
2022/11/27 03:06:16;;;;;;;;;;;5.10;99.90;;;;;;5058808;28;19912;-61
2022/11/27 03:08:48;;;;;;;;;;;5.10;99.90;;;;;;5061839;28;20309;-59
2022/11/27 03:11:14;;;;;;;;;;;5.10;99.90;;;;;;5065347;28;20679;-61
2022/11/27 03:13:42;;;;;;;;;;;5.00;99.90;;;;;;5057801;28;20383;-58
2022/11/27 03:16:15;;;;;;;;;;;5.10;99.90;;;;;;5062089;28;19955;-55
2022/11/27 03:18:42;;;;;;;;;;;5.00;99.90;;;;;;5066454;28;20479;-59
2022/11/27 03:21:14;;;;;;;;;;;5.00;99.90;;;;;;5058269;28;20392;-60
2022/11/27 03:23:40;;;;;;;;;;;5.00;99.90;;;;;;5063202;28;20107;-59
2022/11/27 03:26:05;;;;;;;;;;;5.00;99.90;;;;;;5057817;28;20298;-58
2022/11/27 03:28:31;;;;;;;;;;;5.00;99.90;;;;;;5063779;28;19920;-61
2022/11/27 03:30:57;;;;;;;;;;;5.00;99.90;;;;;;5059088;28;20420;-60
2022/11/27 03:33:22;;;;;;;;;;;5.00;99.90;;;;;;5059652;28;19913;-61
2022/11/27 03:35:48;;;;;;;;;;;5.00;99.90;;;;;;5060664;28;19921;-61
2022/11/27 03:38:13;;;;;;;;;;;5.00;99.90;;;;;;5063856;28;19913;-69
2022/11/27 03:40:54;;;;;;;;;;;5.00;99.90;;;;;;5060130;28;19963;-59
2022/11/27 03:43:23;;;;;;;;;;;5.00;99.90;;;;;;5064818;28;19913;-59
2022/11/27 03:45:56;;;;;;;;;;;5.10;99.90;;;;;;5058268;28;19921;-59
2022/11/27 03:48:34;;;;;;;;;;;5.10;99.90;;;;;;5061985;28;19920;-59
2022/11/27 03:51:03;;;;;;;;;;;5.10;99.90;;;;;;5060622;28;19920;-59
2022/11/27 03:53:35;;;;;;;;;;;5.20;99.90;;;;;;5063117;28;19936;-60
2022/11/27 03:56:11;;;;;;;;;;;5.20;99.90;;;;;;5058658;28;19920;-57
2022/11/27 03:58:39;;;;;;;;;;;5.20;99.90;;;;;;5064222;28;19916;-58
2022/11/27 04:01:07;;;;;;;;;;;5.20;99.90;;;;;;5062629;28;20445;-61
2022/11/27 04:03:33;;;;;;;;;;;5.20;99.90;;;;;;5061955;28;19919;-57
2022/11/27 04:05:58;;;;;;;;;;;5.20;99.90;;;;;;5061563;28;19917;-60
2022/11/27 04:08:24;;;;;;;;;;;5.20;99.90;;;;;;5064926;28;19913;-57
2022/11/27 04:10:49;;;;;;;;;;;5.30;99.90;;;;;;5062020;28;20358;-55
2022/11/27 04:13:15;;;;;;;;;;;5.30;99.90;;;;;;5068242;28;19912;-58
2022/11/27 04:15:40;;;;;;;;;;;5.30;99.90;;;;;;5062727;28;20007;-58
2022/11/27 04:18:06;;;;;;;;;;;5.30;99.90;;;;;;5063193;28;20057;-58
2022/11/27 04:20:31;;;;;;;;;;;5.30;99.90;;;;;;5062155;28;19917;-60
2022/11/27 04:22:57;;;;;;;;;;;5.40;99.90;;;;;;5060998;28;19919;-58
2022/11/27 04:25:22;;;;;;;;;;;5.40;99.90;;;;;;5061601;28;19912;-58
2022/11/27 04:27:48;;;;;;;;;;;5.40;99.90;;;;;;5066464;28;19956;-60
2022/11/27 04:30:13;;;;;;;;;;;5.40;99.90;;;;;;5060301;28;19958;-59
2022/11/27 04:32:39;;;;;;;;;;;5.30;99.90;;;;;;5060689;28;19918;-59
2022/11/27 04:35:05;;;;;;;;;;;5.30;99.90;;;;;;5062389;28;19967;-56
2022/11/27 04:37:30;;;;;;;;;;;5.30;99.90;;;;;;5059267;28;19916;-59
2022/11/27 04:39:56;;;;;;;;;;;;;;;;;;5060489;28;19926;-59
2022/11/27 04:42:22;;;;;;;;;;;;;;;;;;5068000;28;19981;-58
2022/11/27 04:44:48;;;;;;;;;;;;;;;;;;5064141;28;19921;-58
2022/11/27 04:47:14;;;;;;;;;;;;;;;;;;5061392;28;19912;-59
2022/11/27 04:49:39;;;;;;;;;;;;;;;;;;5076178;28;20380;-60
2022/11/27 04:52:05;;;;;;;;;;;;;;;;;;5062577;28;19921;-56
2022/11/27 04:54:31;;;;;;;;;;;;;;;;;;5066093;28;19982;-61
2022/11/27 04:56:57;;;;;;;;;;;;;;;;;;5057144;28;19959;-59
2022/11/27 04:59:23;;;;;;;;;;;;;;;;;;5063854;28;19917;-56
2022/11/27 05:01:49;;;;;;;;;;;;;;;;;;5061550;28;19994;-56
2022/11/27 05:04:14;;;;;;;;;;;;;;;;;;5069081;28;19920;-57
2022/11/27 05:06:40;;;;;;;;;;;;;;;;;;5064669;28;19921;-57
2022/11/27 05:09:06;;;;;;;;;;;;;;;;;;5069675;28;19916;-58
2022/11/27 05:11:32;;;;;;;;;;;;;;;;;;5060365;28;19920;-59
2022/11/27 05:16:42;;;;;;;;;;;;;;;;;;5060104;28;19927;-58
2022/11/27 05:19:09;;;;;;;;;;;;;;;;;;5060666;28;19916;-58
2022/11/27 05:21:35;;;;;;;;;;;;;;;;;;5064926;28;19977;-55
2022/11/27 05:24:01;;;;;;;;;;;;;;;;;;5067438;28;19916;-57
2022/11/27 05:26:26;;;;;;;;;;;;;;;;;;5061322;28;19924;-58
2022/11/27 05:28:52;;;;;;;;;;;;;;;;;;5057040;28;20370;-59
2022/11/27 05:31:18;;;;;;;;;;;;;;;;;;5067153;28;19912;-60
2022/11/27 05:33:44;;;;;;;;;;;;;;;;;;5067471;28;20281;-60
2022/11/27 05:36:10;;;;;;;;;;;;;;;;;;5064652;28;19912;-57
2022/11/27 05:38:36;;;;;;;;;;;;;;;;;;5066787;28;20003;-55
2022/11/27 05:41:02;;;;;;;;;;;;;;;;;;5066964;28;19923;-56
2022/11/27 05:43:28;;;;;;;;;;;;;;;;;;5070378;28;19957;-61
2022/11/27 05:45:53;;;;;;;;;;;;;;;;;;5059503;28;19912;-59
2022/11/27 05:48:19;;;;;;;;;;;;;;;;;;5069006;28;19912;-57
2022/11/27 05:50:45;;;;;;;;;;;;;;;;;;5061193;28;19913;-59
2022/11/27 05:53:11;;;;;;;;;;;;;;;;;;5070018;28;19919;-60
2022/11/27 05:55:37;;;;;;;;;;;;;;;;;;5057471;28;20405;-59
2022/11/27 05:58:03;;;;;;;;;;;;;;;;;;5065665;28;19912;-61
2022/11/27 06:00:29;;;;;;;;;;;;;;;;;;5063524;28;19917;-59
2022/11/27 06:02:55;;;;;;;;;;;;;;;;;;5066672;28;19917;-60
2022/11/27 06:05:21;;;;;;;;;;;;;;;;;;5067753;28;19912;-62
2022/11/27 06:07:46;;;;;;;;;;;;;;;;;;5066880;28;19978;-57
2022/11/27 06:10:12;;;;;;;;;;;;;;;;;;5064969;28;19978;-58
2022/11/27 06:12:38;;;;;;;;;;;;;;;;;;5068443;28;19924;-58
2022/11/27 06:15:04;;;;;;;;;;;;;;;;;;5068668;28;19959;-58
2022/11/27 06:17:30;;;;;;;;;;;;;;;;;;5066106;28;19908;-59
2022/11/27 06:19:56;;;;;;;;;;;;;;;;;;5061096;28;19943;-59
2022/11/27 06:22:22;;;;;;;;;;;;;;;;;;5065044;28;20280;-61
2022/11/27 06:24:48;;;;;;;;;;;;;;;;;;5069506;28;19973;-61
2022/11/27 06:27:13;;;;;;;;;;;;;;;;;;5063336;28;19927;-56
2022/11/27 06:29:39;;;;;;;;;;;;;;;;;;5058118;28;19979;-62
2022/11/27 06:32:05;;;;;;;;;;;;;;;;;;5057106;28;19970;-61
2022/11/27 06:34:31;;;;;;;;;;;;;;;;;;5066727;28;20327;-58
2022/11/27 06:36:57;;;;;;;;;;;;;;;;;;5063263;28;19954;-60
2022/11/27 06:39:23;;;;;;;;;;;;;;;;;;5060018;28;20007;-57
2022/11/27 06:41:49;;;;;;;;;;;;;;;;;;5063704;28;19966;-61
2022/11/27 06:44:14;;;;;;;;;;;;;;;;;;5061724;28;20309;-59
2022/11/27 06:46:40;;;;;;;;;;;;;;;;;;5064626;28;19908;-58
2022/11/27 06:49:06;;;;;;;;;;;;;;;;;;5063559;28;19999;-60
2022/11/27 06:51:32;;;;;;;;;;;;;;;;;;5058173;28;20363;-57
2022/11/27 06:53:58;;;;;;;;;;;;;;;;;;5070103;28;19916;-58
2022/11/27 06:56:24;;;;;;;;;;;;;;;;;;5063079;28;19917;-60
2022/11/27 06:58:49;;;;;;;;;;;;;;;;;;5065155;28;19916;-58
2022/11/27 07:01:15;;;;;;;;;;;;;;;;;;5063487;28;20274;-59
2022/11/27 07:03:41;;;;;;;;;;;;;;;;;;5068150;28;19981;-57
2022/11/27 07:06:07;;;;;;;;;;;;;;;;;;5063928;28;19913;-59
2022/11/27 07:08:33;;;;;;;;;;;;;;;;;;5062466;28;20556;-59
2022/11/27 07:10:59;;;;;;;;;;;;;;;;;;5063945;28;19916;-59
2022/11/27 07:13:25;;;;;;;;;;;;;;;;;;5063182;28;20003;-59
2022/11/27 07:15:50;;;;;;;;;;;;;;;;;;5063354;28;19920;-58
2022/11/27 07:18:16;;;;;;;;;;;;;;;;;;5067289;28;20062;-58
2022/11/27 07:20:42;;;;;;;;;;;;;;;;;;5056530;28;19920;-56
2022/11/27 07:23:08;;;;;;;;;;;;;;;;;;5066008;28;19912;-59
2022/11/27 07:25:34;;;;;;;;;;;;;;;;;;5068448;28;19916;-60
2022/11/27 07:28:00;;;;;;;;;;;;;;;;;;5063728;28;19978;-58
2022/11/27 07:30:26;;;;;;;;;;;;;;;;;;5063284;28;19927;-58
2022/11/27 07:32:52;;;;;;;;;;;;;;;;;;5069450;28;19912;-57
2022/11/27 07:35:18;;;;;;;;;;;;;;;;;;5066274;28;19922;-55
2022/11/27 07:37:44;;;;;;;;;;;;;;;;;;5059517;28;19919;-58
2022/11/27 07:40:09;;;;;;;;;;;;;;;;;;5062252;28;19917;-56
2022/11/27 07:42:35;;;;;;;;;;;;;;;;;;5069530;28;20007;-59
2022/11/27 07:45:01;;;;;;;;;;;;;;;;;;5070567;28;19912;-61
2022/11/27 07:47:27;;;;;;;;;;;;;;;;;;5084092;28;19995;-62
2022/11/27 07:49:54;;;;;;;;;;;;;;;;;;5069930;28;19966;-58
2022/11/27 07:52:20;;;;;;;;;;;;;;;;;;5064752;28;19916;-61
2022/11/27 07:54:45;;;;;;;;;;;;;;;;;;5064785;28;20345;-59
2022/11/27 07:57:11;;;;;;;;;;;;;;;;;;5063014;28;19927;-59
2022/11/27 07:59:37;;;;;;;;;;;;;;;;;;5065474;28;19916;-58
2022/11/27 08:02:03;;;;;;;;;;;;;;;;;;5063580;28;20301;-58
2022/11/27 08:04:29;;;;;;;;;;;;;;;;;;5066984;28;19919;-59
2022/11/27 08:06:56;;;;;;;;;;;;;;;;;;5063164;28;19916;-60
2022/11/27 08:09:22;;;;;;;;;;;;;;;;;;5065114;28;19969;-61
2022/11/27 08:11:47;;;;;;;;;;;;;;;;;;5067065;28;20019;-59
2022/11/27 08:14:13;;;;;;;;;;;;;;;;;;5056256;28;19927;-55
2022/11/27 08:16:40;;;;;;;;;;;;;;;;;;5058522;28;19969;-53
2022/11/27 08:19:06;;;;;;;;;;;;;;;;;;5077792;28;20293;-58
2022/11/27 08:21:32;;;;;;;;;;;;;;;;;;5063035;28;19927;-55
2022/11/27 08:23:57;;;;;;;;;;;;;;;;;;5064191;28;19913;-57
2022/11/27 08:26:26;;;;;;;;;;;;;;;;;;5063997;28;20461;-56
2022/11/27 08:28:52;;;;;;;;;;;;;;;;;;5065292;28;19913;-54
2022/11/27 08:31:19;;;;;;;;;;;;;;;;;;5104984;22;19925;-61
2022/11/27 08:33:45;;;;;;;;;;;;;;;;;;5085287;28;19938;-60
2022/11/27 08:36:11;;;;;;;;;;;;;;;;;;5092788;28;19920;-62
2022/11/27 08:38:37;;;;;;;;;;;;;;;;;;5094499;28;19912;-61
2022/11/27 08:41:03;;;;;;;;;;;;;;;;;;5089272;28;19913;-60
2022/11/27 08:43:29;;;;;;;;;;;;;;;;;;5072656;28;19912;-61
2022/11/27 08:45:54;;;;;;;;;;;;;;;;;;5093582;28;19969;-61
2022/11/27 08:48:20;;;;;;;;;;;;;;;;;;5089779;28;20302;-60
2022/11/27 08:50:46;;;;;;;;;;;;;;;;;;5088856;28;19999;-60
2022/11/27 08:53:12;;;;;;;;;;;;;;;;;;5093291;28;19925;-61
2022/11/27 08:55:38;;;;;;;;;;;;;;;;;;5092803;28;19915;-61
2022/11/27 08:58:04;;;;;;;;;;;;;;;;;;5091246;28;19928;-61
2022/11/27 09:00:30;;;;;;;;;;;;;;;;;;5086842;28;19965;-61
2022/11/27 09:02:56;;;;;;;;;;;;;;;;;;5072571;28;19972;-61
2022/11/27 09:05:21;;;;;;;;;;;;;;;;;;5091510;28;20293;-61
2022/11/27 09:07:47;;;;;;;;;;;;;;;;;;5086243;28;21419;-61
2022/11/27 09:10:13;;;;;;;;;;;;;;;;;;5062633;28;19969;-62
2022/11/27 09:12:39;;;;;;;;;;;;;;;;;;5090305;28;19915;-62
2022/11/27 09:15:05;;;;;;;;;;;;;;;;;;5088515;28;19916;-60
2022/11/27 09:17:31;;;;;;;;;;;;;;;;;;5080320;28;19923;-61
2022/11/27 09:19:57;;;;;;;;;;;;;;;;;;5090614;28;20390;-62
2022/11/27 09:22:23;;;;;;;;;;;;;;;;;;5090344;28;19908;-60
2022/11/27 09:24:49;;;;;;;;;;;;;;;;;;5064435;28;19916;-62
2022/11/27 09:27:14;;;;;;;;;;;;;;;;;;5071842;28;20427;-60
2022/11/27 09:29:40;;;;;;;;;;;;;;;;;;5089970;28;20006;-61
2022/11/27 09:32:06;;;;;;;;;;;;;;;;;;5091253;28;19916;-61
2022/11/27 09:34:32;;;;;;;;;;;;;;;;;;5090613;28;19912;-61
2022/11/27 09:36:58;;;;;;;;;;;;;;;;;;5084608;28;20019;-61
2022/11/27 09:39:28;;;;;;;;;;;;;;;;;;5089553;28;20818;-61
2022/11/27 09:41:54;;;;;;;;;;;;;;;;;;5074526;28;20384;-61
2022/11/27 09:44:20;;;;;;;;;;;;;;;;;;5084763;28;19916;-61
2022/11/27 09:46:46;;;;;;;;;;;;;;;;;;5088734;28;20386;-61
2022/11/27 09:49:12;;;;;;;;;;;;;;;;;;5084092;28;19934;-61
2022/11/27 09:51:38;;;;;;;;;;;;;;;;;;5087304;28;19924;-61
2022/11/27 09:54:04;;;;;;;;;;;;;;;;;;5087214;28;20380;-61
2022/11/27 09:56:30;;;;;;;;;;;;;;;;;;5081596;28;19944;-61
2022/11/27 09:58:56;;;;;;;;;;;;;;;;;;5088049;28;19948;-61
2022/11/27 10:01:22;;;;;;;;;;;;;;;;;;5090026;28;20351;-61
2022/11/27 10:03:48;;;;;;;;;;;;;;;;;;5087892;28;19920;-61
2022/11/27 10:06:13;;;;;;;;;;;;;;;;;;5089389;28;20274;-63
2022/11/27 10:08:39;;;;;;;;;;;;;;;;;;5081034;28;20007;-61
2022/11/27 10:11:05;;;;;;;;;;;;;;;;;;5085010;28;20698;-61
2022/11/27 10:13:31;;;;;;;;;;;;;;;;;;5088817;28;19916;-61
2022/11/27 10:15:57;;;;;;;;;;;;;;;;;;5085990;28;19957;-61
2022/11/27 10:18:23;;;;;;;;;;;;;;;;;;5068583;28;20006;-60
2022/11/27 10:20:49;;;;;;;;;;;;;;;;;;5082730;28;22137;-61
2022/11/27 10:23:15;;;;;;;;;;;;;;;;;;5086583;28;19919;-62
2022/11/27 10:25:41;;;;;;;;;;;;;;;;;;5087392;28;19920;-61
2022/11/27 10:28:07;;;;;;;;;;;;;;;;;;5071159;28;20325;-61
2022/11/27 10:30:33;;;;;;;;;;;;;;;;;;5085381;28;20014;-61
2022/11/27 10:32:58;;;;;;;;;;;;;;;;;;5084471;28;19924;-61
2022/11/27 10:35:24;;;;;;;;;;;;;;;;;;5086068;28;19919;-61
2022/11/27 10:37:50;;;;;;;;;;;;;;;;;;5086441;28;20601;-60
2022/11/27 10:40:16;;;;;;;;;;;;;;;;;;5087237;28;19923;-61
2022/11/27 10:42:42;;;;;;;;;;;;;;;;;;5086053;28;19916;-62
2022/11/27 10:45:08;;;;;;;;;;;;;;;;;;5087524;28;19912;-62
2022/11/27 10:47:34;;;;;;;;;;;;;;;;;;5087971;28;19912;-62
2022/11/27 10:49:59;;;;;;;;;;;;;;;;;;5087336;28;20631;-61
2022/11/27 10:52:25;;;;;;;;;;;;;;;;;;5087927;28;19926;-61
2022/11/27 10:54:51;;;;;;;;;;;;;;;;;;5086267;28;19965;-62
2022/11/27 10:57:17;;;;;;;;;;;;;;;;;;5082733;28;20073;-61
2022/11/27 10:59:43;;;;;;;;;;;;;;;;;;5080029;28;19913;-62
2022/11/27 11:02:09;;;;;;;;;;;;;;;;;;5086783;28;19920;-62
2022/11/27 11:04:35;;;;;;;;;;;;;;;;;;5089174;28;19922;-62
2022/11/27 11:07:01;;;;;;;;;;;;;;;;;;5085848;28;19912;-62
2022/11/27 11:09:30;;;;;;;;;;;;;;;;;;5086828;28;20397;-64
2022/11/27 11:11:56;;;;;;;;;;;;;;;;;;5088859;28;19908;-63
2022/11/27 11:14:22;;;;;;;;;;;;;;;;;;5089237;28;19916;-62
2022/11/27 11:16:48;;;;;;;;;;;;;;;;;;5084474;28;19922;-62
2022/11/27 11:19:14;;;;;;;;;;;;;;;;;;5081441;28;19912;-62
2022/11/27 11:21:40;;;;;;;;;;;;;;;;;;5089146;28;19920;-62
2022/11/27 11:24:05;;;;;;;;;;;;;;;;;;5065410;28;19916;-60
2022/11/27 11:26:31;;;;;;;;;;;;;;;;;;5088599;28;20002;-59
2022/11/27 11:28:57;;;;;;;;;;;;;;;;;;5087137;28;19919;-61
2022/11/27 11:31:23;;;;;;;;;;;;;;;;;;5088415;28;19916;-61
2022/11/27 11:33:49;;;;;;;;;;;;;;;;;;5082383;28;19912;-61
2022/11/27 11:36:15;;;;;;;;;;;;;;;;;;5082993;28;19912;-62
2022/11/27 11:38:41;;;;;;;;;;;;;;;;;;5086296;28;20010;-61
2022/11/27 11:41:08;;;;;;;;;;;;;;;;;;5086533;28;19948;-60
2022/11/27 11:43:34;;;;;;;;;;;;;;;;;;5080859;28;20377;-61
2022/11/27 11:46:00;;;;;;;;;;;;;;;;;;5087213;28;19919;-61
2022/11/27 11:48:26;;;;;;;;;;;;;;;;;;5090378;28;19916;-60
2022/11/27 11:50:54;;;;;;;;;;;;;;;;;;5086978;28;19919;-61
2022/11/27 11:53:20;;;;;;;;;;;;;;;;;;5086395;28;19919;-61
2022/11/27 11:55:46;;;;;;;;;;;;;;;;;;5088736;28;19920;-61
2022/11/27 11:58:11;;;;;;;;;;;;;;;;;;5087284;28;19961;-62
2022/11/27 12:00:37;;;;;;;;;;;;;;;;;;5082088;28;20377;-62
2022/11/27 12:03:03;;;;;;;;;;;;;;;;;;5078203;28;19957;-61
2022/11/27 12:05:29;;;;;;;;;;;;;;;;;;5086936;28;19911;-60
2022/11/27 12:07:55;;;;;;;;;;;;;;;;;;5082166;28;19958;-61
2022/11/27 12:10:21;;;;;;;;;;;;;;;;;;5079297;28;20547;-61
2022/11/27 12:12:47;;;;;;;;;;;;;;;;;;5083339;28;19968;-61
2022/11/27 12:15:13;;;;;;;;;;;;;;;;;;5083327;28;19916;-61
2022/11/27 12:17:39;;;;;;;;;;;;;;;;;;5080183;28;20433;-60
2022/11/27 12:20:04;;;;;;;;;;;;;;;;;;5082077;28;19916;-59
2022/11/27 12:22:30;;;;;;;;;;;;;;;;;;5083694;28;19950;-61
2022/11/27 12:24:56;;;;;;;;;;;;;;;;;;5084095;28;19916;-61
2022/11/27 12:27:22;;;;;;;;;;;;;;;;;;5082180;28;19923;-60
2022/11/27 12:29:48;;;;;;;;;;;;;;;;;;5079643;28;19920;-61
2022/11/27 12:32:14;;;;;;;;;;;;;;;;;;5081834;28;19916;-60
2022/11/27 12:34:40;;;;;;;;;;;;;;;;;;5084968;28;20010;-60
2022/11/27 12:37:06;;;;;;;;;;;;;;;;;;5077211;28;19927;-61
2022/11/27 12:39:32;;;;;;;;;;;;;;;;;;5080656;28;19931;-61
2022/11/27 12:41:57;;;;;;;;;;;;;;;;;;5085336;28;19916;-62
2022/11/27 12:44:23;;;;;;;;;;;;;;;;;;5082915;28;19916;-61
2022/11/27 12:46:49;;;;;;;;;;;;;;;;;;5082093;28;20309;-62
2022/11/27 12:49:15;;;;;;;;;;;;;;;;;;5080958;28;19912;-61
2022/11/27 12:51:41;;;;;;;;;;;;;;;;;;5083015;28;19912;-61
2022/11/27 12:54:07;;;;;;;;;;;;;;;;;;5085982;28;20007;-63
2022/11/27 12:56:33;;;;;;;;;;;;;;;;;;5083063;28;19916;-62
2022/11/27 12:58:59;;;;;;;;;;;;;;;;;;5080714;28;20377;-62
2022/11/27 13:01:24;;;;;;;;;;;;;;;;;;5080164;28;19924;-61
2022/11/27 13:03:50;;;;;;;;;;;;;;;;;;5079950;28;19912;-61
2022/11/27 13:06:16;;;;;;;;;;;;;;;;;;5081868;28;20394;-62
2022/11/27 13:08:42;;;;;;;;;;;;;;;;;;5085264;28;19937;-62
2022/11/27 13:11:08;;;;;;;;;;;;;;;;;;5084326;28;20600;-62
2022/11/27 13:13:34;;;;;;;;;;;;;;;;;;5088349;28;19965;-62
2022/11/27 13:16:00;;;;;;;;;;;;;;;;;;5086055;28;19965;-62
2022/11/27 13:18:26;;;;;;;;;;;;;;;;;;5081983;28;19913;-61
2022/11/27 13:20:51;;;;;;;;;;;;;;;;;;5084389;28;19924;-61
2022/11/27 13:23:17;;;;;;;;;;;;;;;;;;5087153;28;19922;-61
2022/11/27 13:25:43;;;;;;;;;;;;;;;;;;5086484;28;20381;-62
2022/11/27 13:28:09;;;;;;;;;;;;;;;;;;5083735;28;20001;-62
2022/11/27 13:30:35;;;;;;;;;;;;;;;;;;5085750;28;19916;-62
2022/11/27 13:33:01;;;;;;;;;;;;;;;;;;5091233;28;20014;-62
2022/11/27 13:35:27;;;;;;;;;;;;;;;;;;5088547;28;19962;-61
2022/11/27 13:37:52;;;;;;;;;;;;;;;;;;5089109;28;19920;-62
2022/11/27 13:40:19;;;;;;;;;;;;;;;;;;5086119;28;20369;-61
2022/11/27 13:42:44;;;;;;;;;;;;;;;;;;5086856;28;20338;-61
2022/11/27 13:45:10;;;;;;;;;;;;;;;;;;5081915;28;19958;-61
2022/11/27 13:47:36;;;;;;;;;;;;;;;;;;5086389;28;19912;-62
2022/11/27 13:50:02;;;;;;;;;;;;;;;;;;5089720;28;19920;-62
2022/11/27 13:52:28;;;;;;;;;;;;;;;;;;5084273;28;19919;-62
2022/11/27 13:54:54;;;;;;;;;;;;;;;;;;5087195;28;19920;-63
2022/11/27 13:57:20;;;;;;;;;;;;;;;;;;5088955;28;20392;-62
2022/11/27 13:59:46;;;;;;;;;;;;;;;;;;5085937;28;19995;-61
2022/11/27 14:02:12;;;;;;;;;;;;;;;;;;5088099;28;19920;-62
2022/11/27 14:04:37;;;;;;;;;;;;;;;;;;5088113;28;19916;-60
2022/11/27 14:07:05;;;;;;;;;;;;;;;;;;5085736;28;19912;-61
2022/11/27 14:09:31;;;;;;;;;;;;;;;;;;5066032;28;19916;-61
2022/11/27 14:11:57;;;;;;;;;;;;;;;;;;5084251;28;20000;-62
2022/11/27 14:14:23;;;;;;;;;;;;;;;;;;5085239;28;20294;-62
2022/11/27 14:16:49;;;;;;;;;;;;;;;;;;5085446;28;19951;-62
2022/11/27 14:19:15;;;;;;;;;;;;;;;;;;5084772;28;19977;-61
2022/11/27 14:21:42;;;;;;;;;;;;;;;;;;5085900;28;19912;-61
2022/11/27 14:24:07;;;;;;;;;;;;;;;;;;5081987;28;19954;-62
2022/11/27 14:26:33;;;;;;;;;;;;;;;;;;5085480;28;19955;-62
2022/11/27 14:28:59;;;;;;;;;;;;;;;;;;5082406;28;19912;-62
2022/11/27 14:31:25;;;;;;;;;;;;;;;;;;5081302;28;19924;-62
2022/11/27 14:33:51;;;;;;;;;;;;;;;;;;5086640;28;20310;-62
2022/11/27 14:36:17;;;;;;;;;;;;;;;;;;5087614;28;19962;-62
2022/11/27 14:38:43;;;;;;;;;;;;;;;;;;5088584;28;20300;-60
2022/11/27 14:41:08;;;;;;;;;;;;;;;;;;5082122;28;19923;-60
2022/11/27 14:43:34;;;;;;;;;;;;;;;;;;5086764;28;19916;-61
2022/11/27 14:46:00;;;;;;;;;;;;;;;;;;5082641;28;19912;-61
2022/11/27 14:48:26;;;;;;;;;;;;;;;;;;5088422;28;20292;-60
2022/11/27 14:50:52;;;;;;;;;;;;;;;;;;5080590;28;19920;-61
2022/11/27 14:53:18;;;;;;;;;;;;;;;;;;5082671;28;20468;-60
2022/11/27 14:55:44;;;;;;;;;;;;;;;;;;5083278;28;19919;-62
2022/11/27 14:58:10;;;;;;;;;;;;;;;;;;5079540;28;19916;-63
2022/11/27 15:00:35;;;;;;;;;;;;;;;;;;5084719;28;20324;-62
2022/11/27 15:03:01;;;;;;;;;;;;;;;;;;5083716;28;19920;-62
2022/11/27 15:05:27;;;;;;;;;;;;;;;;;;5087035;28;19969;-62
2022/11/27 15:07:53;;;;;;;;;;;;;;;;;;5081902;28;19923;-60
2022/11/27 15:10:19;;;;;;;;;;;;;;;;;;5084970;28;20440;-62
2022/11/27 15:12:45;;;;;;;;;;;;;;;;;;5081490;28;19916;-61
2022/11/27 15:15:11;;;;;;;;;;;;;;;;;;5084848;28;19976;-62
2022/11/27 15:17:36;;;;;;;;;;;;;;;;;;5087419;28;19923;-62
2022/11/27 15:20:03;;;;;;;;;;;;;;;;;;5087419;28;19925;-62
2022/11/27 15:22:28;;;;;;;;;;;;;;;;;;5086398;28;19919;-60
2022/11/27 15:24:54;;;;;;;;;;;;;;;;;;5086484;28;19912;-61
2022/11/27 15:27:20;;;;;;;;;;;;;;;;;;5085992;28;19916;-61
2022/11/27 15:29:46;;;;;;;;;;;;;;;;;;5086511;28;19998;-60
2022/11/27 15:32:12;;;;;;;;;;;;;;;;;;5083916;28;19949;-60
2022/11/27 15:34:38;;;;;;;;;;;;;;;;;;5086046;28;19916;-60
2022/11/27 15:37:05;;;;;;;;;;;;;;;;;;5086846;28;20744;-59
2022/11/27 15:39:31;;;;;;;;;;;;;;;;;;5082188;28;19927;-59
2022/11/27 15:41:57;;;;;;;;;;;;;;;;;;5085333;28;19912;-58
2022/11/27 15:44:23;;;;;;;;;;;;;;;;;;5085374;28;19916;-59
2022/11/27 15:46:49;;;;;;;;;;;;;;;;;;5078715;28;19920;-60
2022/11/27 15:49:15;;;;;;;;;;;;;;;;;;5089556;28;20645;-62
2022/11/27 15:51:41;;;;;;;;;;;;;;;;;;5086193;28;19912;-61
2022/11/27 15:54:07;;;;;;;;;;;;;;;;;;5083812;28;19912;-62
2022/11/27 15:56:32;;;;;;;;;;;;;;;;;;5080265;28;19927;-61
2022/11/27 15:58:58;;;;;;;;;;;;;;;;;;5082133;28;19924;-61